sensor_id;sensor_type;location;lat;lon;timestamp;P1;durP1;ratioP1;P2;durP2;ratioP2
39540;SDS011;25219;52.244;21.006;2023-05-01T00:01:08;13.95;;;5.00;;
39540;SDS011;25219;52.244;21.006;2023-05-01T00:03:34;12.70;;;4.93;;
39540;SDS011;25219;52.244;21.006;2023-05-01T00:06:00;15.48;;;5.57;;
39540;SDS011;25219;52.244;21.006;2023-05-01T00:08:25;9.10;;;4.38;;
39540;SDS011;25219;52.244;21.006;2023-05-01T00:10:50;10.95;;;4.57;;
39540;SDS011;25219;52.244;21.006;2023-05-01T00:13:16;10.63;;;4.57;;
39540;SDS011;25219;52.244;21.006;2023-05-01T00:15:45;11.63;;;4.53;;
39540;SDS011;25219;52.244;21.006;2023-05-01T00:18:10;9.73;;;4.63;;
39540;SDS011;25219;52.244;21.006;2023-05-01T00:20:36;11.70;;;5.15;;
39540;SDS011;25219;52.244;21.006;2023-05-01T00:23:01;15.27;;;5.33;;
39540;SDS011;25219;52.244;21.006;2023-05-01T00:25:26;13.83;;;4.80;;
39540;SDS011;25219;52.244;21.006;2023-05-01T00:27:52;12.02;;;4.70;;
39540;SDS011;25219;52.244;21.006;2023-05-01T00:30:17;14.15;;;5.38;;
39540;SDS011;25219;52.244;21.006;2023-05-01T00:32:42;10.30;;;4.83;;
39540;SDS011;25219;52.244;21.006;2023-05-01T00:35:08;9.50;;;4.47;;
39540;SDS011;25219;52.244;21.006;2023-05-01T00:37:33;7.53;;;4.22;;
39540;SDS011;25219;52.244;21.006;2023-05-01T00:39:58;9.07;;;4.32;;
39540;SDS011;25219;52.244;21.006;2023-05-01T00:42:23;15.20;;;5.17;;
39540;SDS011;25219;52.244;21.006;2023-05-01T00:44:49;12.63;;;5.25;;
39540;SDS011;25219;52.244;21.006;2023-05-01T00:47:14;9.45;;;4.80;;
39540;SDS011;25219;52.244;21.006;2023-05-01T00:49:40;11.30;;;4.28;;
39540;SDS011;25219;52.244;21.006;2023-05-01T00:52:06;12.50;;;4.65;;
39540;SDS011;25219;52.244;21.006;2023-05-01T00:54:34;9.60;;;4.65;;
39540;SDS011;25219;52.244;21.006;2023-05-01T00:56:59;19.98;;;4.22;;
39540;SDS011;25219;52.244;21.006;2023-05-01T00:59:25;9.68;;;4.57;;
39540;SDS011;25219;52.244;21.006;2023-05-01T01:01:50;16.67;;;4.20;;
39540;SDS011;25219;52.244;21.006;2023-05-01T01:04:16;9.93;;;4.03;;
39540;SDS011;25219;52.244;21.006;2023-05-01T01:17:06;12.82;;;4.47;;
39540;SDS011;25219;52.244;21.006;2023-05-01T01:19:48;7.30;;;4.63;;
39540;SDS011;25219;52.244;21.006;2023-05-01T01:22:22;11.55;;;4.47;;
39540;SDS011;25219;52.244;21.006;2023-05-01T01:35:22;11.68;;;4.25;;
39540;SDS011;25219;52.244;21.006;2023-05-01T01:37:50;12.85;;;4.20;;
39540;SDS011;25219;52.244;21.006;2023-05-01T01:40:21;12.38;;;4.18;;
39540;SDS011;25219;52.244;21.006;2023-05-01T01:42:49;12.18;;;4.05;;
39540;SDS011;25219;52.244;21.006;2023-05-01T01:45:23;7.55;;;3.70;;
39540;SDS011;25219;52.244;21.006;2023-05-01T01:47:50;10.40;;;4.47;;
39540;SDS011;25219;52.244;21.006;2023-05-01T01:50:15;11.45;;;3.80;;
39540;SDS011;25219;52.244;21.006;2023-05-01T01:52:42;10.43;;;4.75;;
39540;SDS011;25219;52.244;21.006;2023-05-01T01:55:10;15.65;;;4.25;;
39540;SDS011;25219;52.244;21.006;2023-05-01T01:57:36;8.88;;;3.97;;
39540;SDS011;25219;52.244;21.006;2023-05-01T02:00:02;9.13;;;4.28;;
39540;SDS011;25219;52.244;21.006;2023-05-01T02:02:32;11.00;;;3.85;;
39540;SDS011;25219;52.244;21.006;2023-05-01T02:04:58;12.02;;;3.78;;
39540;SDS011;25219;52.244;21.006;2023-05-01T02:07:23;11.70;;;3.72;;
39540;SDS011;25219;52.244;21.006;2023-05-01T02:09:49;7.20;;;3.60;;
39540;SDS011;25219;52.244;21.006;2023-05-01T02:12:15;10.32;;;3.97;;
39540;SDS011;25219;52.244;21.006;2023-05-01T02:14:41;14.80;;;4.18;;
39540;SDS011;25219;52.244;21.006;2023-05-01T02:17:07;10.77;;;4.10;;
39540;SDS011;25219;52.244;21.006;2023-05-01T02:19:33;9.88;;;4.03;;
39540;SDS011;25219;52.244;21.006;2023-05-01T02:21:58;10.55;;;4.55;;
39540;SDS011;25219;52.244;21.006;2023-05-01T02:24:25;8.73;;;3.80;;
39540;SDS011;25219;52.244;21.006;2023-05-01T02:27:11;9.52;;;3.63;;
39540;SDS011;25219;52.244;21.006;2023-05-01T02:29:37;11.57;;;3.70;;
39540;SDS011;25219;52.244;21.006;2023-05-01T02:32:03;8.98;;;3.53;;
39540;SDS011;25219;52.244;21.006;2023-05-01T02:34:28;13.80;;;4.15;;
39540;SDS011;25219;52.244;21.006;2023-05-01T02:36:54;13.50;;;3.63;;
39540;SDS011;25219;52.244;21.006;2023-05-01T02:39:19;8.53;;;4.20;;
39540;SDS011;25219;52.244;21.006;2023-05-01T02:41:44;8.45;;;3.83;;
39540;SDS011;25219;52.244;21.006;2023-05-01T02:44:10;8.85;;;3.97;;
39540;SDS011;25219;52.244;21.006;2023-05-01T02:46:35;13.23;;;4.63;;
39540;SDS011;25219;52.244;21.006;2023-05-01T02:49:02;12.65;;;3.95;;
39540;SDS011;25219;52.244;21.006;2023-05-01T02:51:28;8.23;;;3.78;;
39540;SDS011;25219;52.244;21.006;2023-05-01T02:53:53;9.57;;;3.90;;
39540;SDS011;25219;52.244;21.006;2023-05-01T02:56:19;12.18;;;4.10;;
39540;SDS011;25219;52.244;21.006;2023-05-01T02:58:44;7.10;;;3.70;;
39540;SDS011;25219;52.244;21.006;2023-05-01T03:01:10;10.53;;;4.33;;
39540;SDS011;25219;52.244;21.006;2023-05-01T03:03:36;8.70;;;3.72;;
39540;SDS011;25219;52.244;21.006;2023-05-01T03:06:01;8.73;;;3.93;;
39540;SDS011;25219;52.244;21.006;2023-05-01T03:08:27;10.70;;;3.67;;
39540;SDS011;25219;52.244;21.006;2023-05-01T03:10:52;10.02;;;4.57;;
39540;SDS011;25219;52.244;21.006;2023-05-01T03:13:17;12.40;;;4.60;;
39540;SDS011;25219;52.244;21.006;2023-05-01T03:15:43;10.95;;;4.78;;
39540;SDS011;25219;52.244;21.006;2023-05-01T03:18:08;12.18;;;5.10;;
39540;SDS011;25219;52.244;21.006;2023-05-01T03:20:33;10.70;;;4.75;;
39540;SDS011;25219;52.244;21.006;2023-05-01T03:22:58;13.98;;;5.57;;
39540;SDS011;25219;52.244;21.006;2023-05-01T03:25:24;16.55;;;4.88;;
39540;SDS011;25219;52.244;21.006;2023-05-01T03:27:49;15.60;;;5.10;;
39540;SDS011;25219;52.244;21.006;2023-05-01T03:30:14;8.70;;;4.45;;
39540;SDS011;25219;52.244;21.006;2023-05-01T03:32:40;14.55;;;5.18;;
39540;SDS011;25219;52.244;21.006;2023-05-01T03:35:05;10.77;;;5.03;;
39540;SDS011;25219;52.244;21.006;2023-05-01T03:37:31;8.00;;;4.28;;
39540;SDS011;25219;52.244;21.006;2023-05-01T03:39:57;9.95;;;5.13;;
39540;SDS011;25219;52.244;21.006;2023-05-01T03:42:23;12.25;;;5.00;;
39540;SDS011;25219;52.244;21.006;2023-05-01T03:44:48;13.20;;;5.32;;
39540;SDS011;25219;52.244;21.006;2023-05-01T03:47:13;13.27;;;4.95;;
39540;SDS011;25219;52.244;21.006;2023-05-01T03:49:39;10.60;;;4.93;;
39540;SDS011;25219;52.244;21.006;2023-05-01T03:52:05;12.98;;;5.43;;
39540;SDS011;25219;52.244;21.006;2023-05-01T03:54:30;12.18;;;5.00;;
39540;SDS011;25219;52.244;21.006;2023-05-01T03:56:55;13.40;;;5.20;;
39540;SDS011;25219;52.244;21.006;2023-05-01T03:59:21;9.85;;;4.68;;
39540;SDS011;25219;52.244;21.006;2023-05-01T04:01:46;16.55;;;4.57;;
39540;SDS011;25219;52.244;21.006;2023-05-01T04:04:11;11.18;;;4.68;;
39540;SDS011;25219;52.244;21.006;2023-05-01T04:06:37;10.43;;;5.35;;
39540;SDS011;25219;52.244;21.006;2023-05-01T04:09:03;11.73;;;4.90;;
39540;SDS011;25219;52.244;21.006;2023-05-01T04:11:28;9.33;;;5.10;;
39540;SDS011;25219;52.244;21.006;2023-05-01T04:13:53;9.40;;;4.27;;
39540;SDS011;25219;52.244;21.006;2023-05-01T04:16:18;15.03;;;4.97;;
39540;SDS011;25219;52.244;21.006;2023-05-01T04:18:43;13.10;;;4.93;;
39540;SDS011;25219;52.244;21.006;2023-05-01T04:21:09;12.70;;;4.30;;
39540;SDS011;25219;52.244;21.006;2023-05-01T04:23:34;13.82;;;4.53;;
39540;SDS011;25219;52.244;21.006;2023-05-01T04:25:59;9.07;;;3.77;;
39540;SDS011;25219;52.244;21.006;2023-05-01T04:28:24;7.93;;;3.75;;
39540;SDS011;25219;52.244;21.006;2023-05-01T04:30:51;11.02;;;3.83;;
39540;SDS011;25219;52.244;21.006;2023-05-01T04:33:16;9.37;;;3.80;;
39540;SDS011;25219;52.244;21.006;2023-05-01T04:35:42;10.05;;;4.45;;
39540;SDS011;25219;52.244;21.006;2023-05-01T04:38:07;11.35;;;4.35;;
39540;SDS011;25219;52.244;21.006;2023-05-01T04:40:34;12.95;;;4.32;;
39540;SDS011;25219;52.244;21.006;2023-05-01T04:43:00;8.80;;;3.90;;
39540;SDS011;25219;52.244;21.006;2023-05-01T04:45:25;10.70;;;3.70;;
39540;SDS011;25219;52.244;21.006;2023-05-01T04:47:50;14.50;;;3.75;;
39540;SDS011;25219;52.244;21.006;2023-05-01T04:50:16;13.85;;;4.00;;
39540;SDS011;25219;52.244;21.006;2023-05-01T04:52:41;10.77;;;4.47;;
39540;SDS011;25219;52.244;21.006;2023-05-01T04:55:06;12.75;;;4.00;;
39540;SDS011;25219;52.244;21.006;2023-05-01T04:57:32;9.07;;;3.85;;
39540;SDS011;25219;52.244;21.006;2023-05-01T04:59:57;10.13;;;3.77;;
39540;SDS011;25219;52.244;21.006;2023-05-01T05:02:22;9.40;;;3.58;;
39540;SDS011;25219;52.244;21.006;2023-05-01T05:04:48;6.60;;;4.00;;
39540;SDS011;25219;52.244;21.006;2023-05-01T05:07:14;8.35;;;3.33;;
39540;SDS011;25219;52.244;21.006;2023-05-01T05:09:39;7.80;;;3.08;;
39540;SDS011;25219;52.244;21.006;2023-05-01T05:12:04;7.80;;;3.30;;
39540;SDS011;25219;52.244;21.006;2023-05-01T05:14:30;6.30;;;3.10;;
39540;SDS011;25219;52.244;21.006;2023-05-01T05:16:55;14.68;;;3.45;;
39540;SDS011;25219;52.244;21.006;2023-05-01T05:19:20;13.40;;;3.33;;
39540;SDS011;25219;52.244;21.006;2023-05-01T05:21:45;9.13;;;3.38;;
39540;SDS011;25219;52.244;21.006;2023-05-01T05:24:11;7.47;;;2.90;;
39540;SDS011;25219;52.244;21.006;2023-05-01T05:26:37;5.43;;;2.60;;
39540;SDS011;25219;52.244;21.006;2023-05-01T05:29:02;5.70;;;2.97;;
39540;SDS011;25219;52.244;21.006;2023-05-01T05:31:27;5.97;;;3.17;;
39540;SDS011;25219;52.244;21.006;2023-05-01T05:33:53;10.03;;;3.10;;
39540;SDS011;25219;52.244;21.006;2023-05-01T05:36:18;9.82;;;3.35;;
39540;SDS011;25219;52.244;21.006;2023-05-01T05:38:43;8.23;;;3.50;;
39540;SDS011;25219;52.244;21.006;2023-05-01T05:41:08;6.37;;;2.93;;
39540;SDS011;25219;52.244;21.006;2023-05-01T05:43:33;9.13;;;3.40;;
39540;SDS011;25219;52.244;21.006;2023-05-01T05:45:59;10.10;;;3.50;;
39540;SDS011;25219;52.244;21.006;2023-05-01T05:48:24;6.90;;;3.63;;
39540;SDS011;25219;52.244;21.006;2023-05-01T05:50:49;8.48;;;3.05;;
39540;SDS011;25219;52.244;21.006;2023-05-01T05:53:16;6.10;;;2.47;;
39540;SDS011;25219;52.244;21.006;2023-05-01T05:55:41;7.45;;;2.90;;
39540;SDS011;25219;52.244;21.006;2023-05-01T05:58:07;7.47;;;2.63;;
39540;SDS011;25219;52.244;21.006;2023-05-01T06:00:32;4.45;;;2.28;;
39540;SDS011;25219;52.244;21.006;2023-05-01T06:02:58;4.95;;;2.53;;
39540;SDS011;25219;52.244;21.006;2023-05-01T06:05:23;7.13;;;2.80;;
39540;SDS011;25219;52.244;21.006;2023-05-01T06:07:48;4.72;;;2.22;;
39540;SDS011;25219;52.244;21.006;2023-05-01T06:10:13;5.30;;;2.50;;
39540;SDS011;25219;52.244;21.006;2023-05-01T06:12:38;4.40;;;2.30;;
39540;SDS011;25219;52.244;21.006;2023-05-01T06:15:05;6.45;;;2.53;;
39540;SDS011;25219;52.244;21.006;2023-05-01T06:17:31;4.15;;;2.42;;
39540;SDS011;25219;52.244;21.006;2023-05-01T06:19:56;6.93;;;2.45;;
39540;SDS011;25219;52.244;21.006;2023-05-01T06:22:21;7.50;;;1.85;;
39540;SDS011;25219;52.244;21.006;2023-05-01T06:24:46;4.97;;;2.10;;
39540;SDS011;25219;52.244;21.006;2023-05-01T06:27:12;5.30;;;2.10;;
39540;SDS011;25219;52.244;21.006;2023-05-01T06:29:37;4.13;;;2.50;;
39540;SDS011;25219;52.244;21.006;2023-05-01T06:32:02;6.07;;;2.30;;
39540;SDS011;25219;52.244;21.006;2023-05-01T06:34:28;4.75;;;2.33;;
39540;SDS011;25219;52.244;21.006;2023-05-01T06:36:53;6.03;;;2.63;;
39540;SDS011;25219;52.244;21.006;2023-05-01T06:39:19;5.70;;;2.30;;
39540;SDS011;25219;52.244;21.006;2023-05-01T06:41:47;6.22;;;2.25;;
39540;SDS011;25219;52.244;21.006;2023-05-01T06:44:12;5.82;;;2.33;;
39540;SDS011;25219;52.244;21.006;2023-05-01T06:46:37;4.28;;;2.03;;
39540;SDS011;25219;52.244;21.006;2023-05-01T06:49:03;5.90;;;2.20;;
39540;SDS011;25219;52.244;21.006;2023-05-01T06:51:28;7.75;;;2.40;;
39540;SDS011;25219;52.244;21.006;2023-05-01T06:53:55;4.97;;;2.25;;
39540;SDS011;25219;52.244;21.006;2023-05-01T06:56:20;3.73;;;2.00;;
39540;SDS011;25219;52.244;21.006;2023-05-01T06:58:45;8.48;;;2.38;;
39540;SDS011;25219;52.244;21.006;2023-05-01T07:01:11;6.00;;;2.20;;
39540;SDS011;25219;52.244;21.006;2023-05-01T07:03:36;13.47;;;2.43;;
39540;SDS011;25219;52.244;21.006;2023-05-01T07:06:01;4.85;;;2.22;;
39540;SDS011;25219;52.244;21.006;2023-05-01T07:08:26;4.80;;;2.10;;
39540;SDS011;25219;52.244;21.006;2023-05-01T07:10:52;4.07;;;1.90;;
39540;SDS011;25219;52.244;21.006;2023-05-01T07:13:17;7.43;;;2.20;;
39540;SDS011;25219;52.244;21.006;2023-05-01T07:15:43;7.63;;;2.25;;
39540;SDS011;25219;52.244;21.006;2023-05-01T07:18:09;5.63;;;2.22;;
39540;SDS011;25219;52.244;21.006;2023-05-01T07:20:36;4.70;;;2.10;;
39540;SDS011;25219;52.244;21.006;2023-05-01T07:23:01;9.43;;;3.10;;
39540;SDS011;25219;52.244;21.006;2023-05-01T07:25:27;11.82;;;3.63;;
39540;SDS011;25219;52.244;21.006;2023-05-01T07:27:52;6.00;;;2.60;;
39540;SDS011;25219;52.244;21.006;2023-05-01T07:30:18;7.93;;;2.70;;
39540;SDS011;25219;52.244;21.006;2023-05-01T07:32:44;5.53;;;2.60;;
39540;SDS011;25219;52.244;21.006;2023-05-01T07:35:09;11.18;;;2.90;;
39540;SDS011;25219;52.244;21.006;2023-05-01T07:37:35;6.13;;;2.53;;
39540;SDS011;25219;52.244;21.006;2023-05-01T07:40:00;4.88;;;2.53;;
39540;SDS011;25219;52.244;21.006;2023-05-01T07:42:26;6.07;;;2.13;;
39540;SDS011;25219;52.244;21.006;2023-05-01T07:44:51;5.80;;;2.63;;
39540;SDS011;25219;52.244;21.006;2023-05-01T07:47:16;8.03;;;2.60;;
39540;SDS011;25219;52.244;21.006;2023-05-01T07:49:41;4.77;;;2.30;;
39540;SDS011;25219;52.244;21.006;2023-05-01T07:52:07;6.90;;;2.40;;
39540;SDS011;25219;52.244;21.006;2023-05-01T07:54:32;9.73;;;2.63;;
39540;SDS011;25219;52.244;21.006;2023-05-01T07:56:58;5.82;;;2.08;;
39540;SDS011;25219;52.244;21.006;2023-05-01T07:59:23;6.00;;;2.33;;
39540;SDS011;25219;52.244;21.006;2023-05-01T08:01:48;6.93;;;2.50;;
39540;SDS011;25219;52.244;21.006;2023-05-01T08:04:14;17.15;;;6.68;;
39540;SDS011;25219;52.244;21.006;2023-05-01T08:06:39;9.03;;;3.87;;
39540;SDS011;25219;52.244;21.006;2023-05-01T08:09:04;4.88;;;2.72;;
39540;SDS011;25219;52.244;21.006;2023-05-01T08:11:30;4.75;;;2.00;;
39540;SDS011;25219;52.244;21.006;2023-05-01T08:13:57;6.72;;;2.33;;
39540;SDS011;25219;52.244;21.006;2023-05-01T08:16:22;8.63;;;2.97;;
39540;SDS011;25219;52.244;21.006;2023-05-01T08:18:47;4.63;;;2.03;;
39540;SDS011;25219;52.244;21.006;2023-05-01T08:21:13;5.28;;;2.60;;
39540;SDS011;25219;52.244;21.006;2023-05-01T08:23:38;7.53;;;2.53;;
39540;SDS011;25219;52.244;21.006;2023-05-01T08:26:03;8.10;;;2.43;;
39540;SDS011;25219;52.244;21.006;2023-05-01T08:28:28;4.57;;;2.97;;
39540;SDS011;25219;52.244;21.006;2023-05-01T08:30:54;7.40;;;2.70;;
39540;SDS011;25219;52.244;21.006;2023-05-01T08:33:19;7.32;;;2.70;;
39540;SDS011;25219;52.244;21.006;2023-05-01T08:35:44;5.53;;;2.60;;
39540;SDS011;25219;52.244;21.006;2023-05-01T08:38:10;4.17;;;2.40;;
39540;SDS011;25219;52.244;21.006;2023-05-01T08:40:35;7.20;;;2.72;;
39540;SDS011;25219;52.244;21.006;2023-05-01T08:43:01;5.45;;;2.80;;
39540;SDS011;25219;52.244;21.006;2023-05-01T08:45:26;6.00;;;2.87;;
39540;SDS011;25219;52.244;21.006;2023-05-01T08:47:52;6.18;;;2.42;;
39540;SDS011;25219;52.244;21.006;2023-05-01T08:50:19;7.75;;;2.65;;
39540;SDS011;25219;52.244;21.006;2023-05-01T08:52:46;3.90;;;2.28;;
39540;SDS011;25219;52.244;21.006;2023-05-01T08:55:13;5.32;;;2.35;;
39540;SDS011;25219;52.244;21.006;2023-05-01T08:57:42;5.15;;;2.58;;
39540;SDS011;25219;52.244;21.006;2023-05-01T09:00:08;5.15;;;2.45;;
39540;SDS011;25219;52.244;21.006;2023-05-01T09:02:35;5.18;;;2.20;;
39540;SDS011;25219;52.244;21.006;2023-05-01T09:05:00;5.97;;;2.67;;
39540;SDS011;25219;52.244;21.006;2023-05-01T09:07:28;4.57;;;2.60;;
39540;SDS011;25219;52.244;21.006;2023-05-01T09:09:53;4.70;;;2.40;;
39540;SDS011;25219;52.244;21.006;2023-05-01T09:12:22;7.63;;;3.27;;
39540;SDS011;25219;52.244;21.006;2023-05-01T09:14:51;3.22;;;1.70;;
39540;SDS011;25219;52.244;21.006;2023-05-01T09:17:17;4.63;;;2.00;;
39540;SDS011;25219;52.244;21.006;2023-05-01T09:19:44;5.50;;;2.40;;
39540;SDS011;25219;52.244;21.006;2023-05-01T09:22:09;5.93;;;2.17;;
39540;SDS011;25219;52.244;21.006;2023-05-01T09:24:34;9.40;;;2.40;;
39540;SDS011;25219;52.244;21.006;2023-05-01T09:27:00;6.47;;;2.97;;
39540;SDS011;25219;52.244;21.006;2023-05-01T09:29:59;8.07;;;2.50;;
39540;SDS011;25219;52.244;21.006;2023-05-01T09:32:24;4.78;;;2.53;;
39540;SDS011;25219;52.244;21.006;2023-05-01T09:34:52;5.05;;;2.40;;
39540;SDS011;25219;52.244;21.006;2023-05-01T09:39:59;6.90;;;2.40;;
39540;SDS011;25219;52.244;21.006;2023-05-01T09:42:25;5.32;;;2.33;;
39540;SDS011;25219;52.244;21.006;2023-05-01T09:44:50;6.70;;;2.20;;
39540;SDS011;25219;52.244;21.006;2023-05-01T09:47:24;6.03;;;2.22;;
39540;SDS011;25219;52.244;21.006;2023-05-01T09:49:53;6.78;;;2.50;;
39540;SDS011;25219;52.244;21.006;2023-05-01T09:52:18;5.93;;;2.28;;
39540;SDS011;25219;52.244;21.006;2023-05-01T09:54:43;9.07;;;1.90;;
39540;SDS011;25219;52.244;21.006;2023-05-01T09:57:09;5.20;;;1.95;;
39540;SDS011;25219;52.244;21.006;2023-05-01T09:59:34;7.18;;;2.25;;
39540;SDS011;25219;52.244;21.006;2023-05-01T10:02:00;3.95;;;1.80;;
39540;SDS011;25219;52.244;21.006;2023-05-01T10:04:32;9.02;;;1.98;;
39540;SDS011;25219;52.244;21.006;2023-05-01T10:06:59;5.45;;;2.13;;
39540;SDS011;25219;52.244;21.006;2023-05-01T10:09:34;4.65;;;1.80;;
39540;SDS011;25219;52.244;21.006;2023-05-01T10:11:59;5.60;;;2.00;;
39540;SDS011;25219;52.244;21.006;2023-05-01T10:14:25;6.80;;;2.33;;
39540;SDS011;25219;52.244;21.006;2023-05-01T10:16:52;5.80;;;2.00;;
39540;SDS011;25219;52.244;21.006;2023-05-01T10:19:17;5.25;;;2.00;;
39540;SDS011;25219;52.244;21.006;2023-05-01T10:21:42;4.30;;;2.40;;
39540;SDS011;25219;52.244;21.006;2023-05-01T10:24:08;4.65;;;1.80;;
39540;SDS011;25219;52.244;21.006;2023-05-01T10:26:34;5.30;;;1.80;;
39540;SDS011;25219;52.244;21.006;2023-05-01T10:29:00;5.72;;;1.77;;
39540;SDS011;25219;52.244;21.006;2023-05-01T10:31:25;4.30;;;1.70;;
39540;SDS011;25219;52.244;21.006;2023-05-01T10:33:51;5.18;;;1.85;;
39540;SDS011;25219;52.244;21.006;2023-05-01T10:36:24;3.08;;;1.95;;
39540;SDS011;25219;52.244;21.006;2023-05-01T10:38:50;6.25;;;2.05;;
39540;SDS011;25219;52.244;21.006;2023-05-01T10:41:15;4.78;;;1.85;;
39540;SDS011;25219;52.244;21.006;2023-05-01T10:43:41;12.50;;;3.40;;
39540;SDS011;25219;52.244;21.006;2023-05-01T10:48:51;6.93;;;1.80;;
39540;SDS011;25219;52.244;21.006;2023-05-01T10:51:20;4.93;;;1.70;;
39540;SDS011;25219;52.244;21.006;2023-05-01T10:53:46;4.55;;;1.65;;
39540;SDS011;25219;52.244;21.006;2023-05-01T10:58:57;5.70;;;2.20;;
39540;SDS011;25219;52.244;21.006;2023-05-01T11:01:39;7.45;;;2.88;;
39540;SDS011;25219;52.244;21.006;2023-05-01T11:04:05;7.18;;;2.35;;
39540;SDS011;25219;52.244;21.006;2023-05-01T11:06:34;5.75;;;1.80;;
39540;SDS011;25219;52.244;21.006;2023-05-01T11:09:00;5.50;;;2.03;;
39540;SDS011;25219;52.244;21.006;2023-05-01T11:14:04;4.10;;;1.73;;
39540;SDS011;25219;52.244;21.006;2023-05-01T11:19:05;2.95;;;1.50;;
39540;SDS011;25219;52.244;21.006;2023-05-01T11:21:31;3.88;;;1.48;;
39540;SDS011;25219;52.244;21.006;2023-05-01T11:24:04;4.57;;;1.70;;
39540;SDS011;25219;52.244;21.006;2023-05-01T11:26:30;3.90;;;2.00;;
39540;SDS011;25219;52.244;21.006;2023-05-01T11:28:59;7.68;;;2.35;;
39540;SDS011;25219;52.244;21.006;2023-05-01T11:31:24;3.65;;;1.52;;
39540;SDS011;25219;52.244;21.006;2023-05-01T11:33:50;4.00;;;2.05;;
39540;SDS011;25219;52.244;21.006;2023-05-01T11:36:15;9.00;;;2.25;;
39540;SDS011;25219;52.244;21.006;2023-05-01T11:38:54;7.20;;;2.60;;
39540;SDS011;25219;52.244;21.006;2023-05-01T11:41:23;4.68;;;1.85;;
39540;SDS011;25219;52.244;21.006;2023-05-01T11:43:49;5.32;;;2.10;;
39540;SDS011;25219;52.244;21.006;2023-05-01T11:46:21;4.82;;;1.88;;
39540;SDS011;25219;52.244;21.006;2023-05-01T11:48:50;2.50;;;1.30;;
39540;SDS011;25219;52.244;21.006;2023-05-01T11:51:15;3.60;;;1.80;;
39540;SDS011;25219;52.244;21.006;2023-05-01T11:53:40;4.30;;;1.70;;
39540;SDS011;25219;52.244;21.006;2023-05-01T11:56:27;5.95;;;1.30;;
39540;SDS011;25219;52.244;21.006;2023-05-01T11:58:52;2.90;;;1.40;;
39540;SDS011;25219;52.244;21.006;2023-05-01T12:01:17;3.85;;;1.45;;
39540;SDS011;25219;52.244;21.006;2023-05-01T12:03:42;7.20;;;1.88;;
39540;SDS011;25219;52.244;21.006;2023-05-01T12:06:11;4.65;;;1.45;;
39540;SDS011;25219;52.244;21.006;2023-05-01T12:08:43;5.82;;;1.92;;
39540;SDS011;25219;52.244;21.006;2023-05-01T12:11:09;5.32;;;1.95;;
39540;SDS011;25219;52.244;21.006;2023-05-01T12:13:34;3.22;;;1.92;;
39540;SDS011;25219;52.244;21.006;2023-05-01T12:16:00;2.30;;;1.45;;
39540;SDS011;25219;52.244;21.006;2023-05-01T12:18:27;2.45;;;1.48;;
39540;SDS011;25219;52.244;21.006;2023-05-01T12:20:53;6.28;;;2.47;;
39540;SDS011;25219;52.244;21.006;2023-05-01T12:23:19;3.28;;;1.55;;
39540;SDS011;25219;52.244;21.006;2023-05-01T12:25:53;5.00;;;1.60;;
39540;SDS011;25219;52.244;21.006;2023-05-01T12:28:19;3.30;;;1.50;;
39540;SDS011;25219;52.244;21.006;2023-05-01T12:30:44;4.27;;;1.60;;
39540;SDS011;25219;52.244;21.006;2023-05-01T12:33:17;4.63;;;1.40;;
39540;SDS011;25219;52.244;21.006;2023-05-01T12:35:43;6.65;;;1.52;;
39540;SDS011;25219;52.244;21.006;2023-05-01T12:38:15;4.35;;;1.90;;
39540;SDS011;25219;52.244;21.006;2023-05-01T12:40:53;6.50;;;1.70;;
39540;SDS011;25219;52.244;21.006;2023-05-01T12:43:20;7.18;;;1.83;;
39540;SDS011;25219;52.244;21.006;2023-05-01T12:45:46;4.38;;;1.90;;
39540;SDS011;25219;52.244;21.006;2023-05-01T12:48:15;2.25;;;1.63;;
39540;SDS011;25219;52.244;21.006;2023-05-01T12:50:41;3.05;;;1.50;;
39540;SDS011;25219;52.244;21.006;2023-05-01T12:53:07;4.40;;;1.58;;
39540;SDS011;25219;52.244;21.006;2023-05-01T12:55:47;3.53;;;1.55;;
39540;SDS011;25219;52.244;21.006;2023-05-01T12:58:12;3.22;;;1.60;;
39540;SDS011;25219;52.244;21.006;2023-05-01T13:00:56;7.65;;;1.98;;
39540;SDS011;25219;52.244;21.006;2023-05-01T13:06:00;5.68;;;2.42;;
39540;SDS011;25219;52.244;21.006;2023-05-01T13:08:29;3.00;;;1.75;;
39540;SDS011;25219;52.244;21.006;2023-05-01T13:10:55;3.17;;;1.45;;
39540;SDS011;25219;52.244;21.006;2023-05-01T13:13:24;6.25;;;2.35;;
39540;SDS011;25219;52.244;21.006;2023-05-01T13:15:50;4.03;;;1.65;;
39540;SDS011;25219;52.244;21.006;2023-05-01T13:18:16;4.38;;;1.63;;
39540;SDS011;25219;52.244;21.006;2023-05-01T13:20:41;2.83;;;1.37;;
39540;SDS011;25219;52.244;21.006;2023-05-01T13:23:10;4.90;;;1.55;;
39540;SDS011;25219;52.244;21.006;2023-05-01T13:25:37;7.25;;;2.00;;
39540;SDS011;25219;52.244;21.006;2023-05-01T13:28:02;3.33;;;1.60;;
39540;SDS011;25219;52.244;21.006;2023-05-01T13:30:31;3.63;;;1.25;;
39540;SDS011;25219;52.244;21.006;2023-05-01T13:32:57;6.82;;;1.50;;
39540;SDS011;25219;52.244;21.006;2023-05-01T13:35:22;7.97;;;2.13;;
39540;SDS011;25219;52.244;21.006;2023-05-01T13:37:48;2.92;;;1.27;;
39540;SDS011;25219;52.244;21.006;2023-05-01T13:40:14;3.83;;;2.10;;
39540;SDS011;25219;52.244;21.006;2023-05-01T13:42:39;4.20;;;1.77;;
39540;SDS011;25219;52.244;21.006;2023-05-01T13:45:05;2.25;;;1.20;;
39540;SDS011;25219;52.244;21.006;2023-05-01T13:47:31;2.20;;;1.50;;
39540;SDS011;25219;52.244;21.006;2023-05-01T13:49:56;5.80;;;1.65;;
39540;SDS011;25219;52.244;21.006;2023-05-01T13:52:21;3.42;;;1.60;;
39540;SDS011;25219;52.244;21.006;2023-05-01T13:54:47;5.30;;;1.58;;
39540;SDS011;25219;52.244;21.006;2023-05-01T13:57:12;10.00;;;2.15;;
39540;SDS011;25219;52.244;21.006;2023-05-01T13:59:39;5.03;;;1.40;;
39540;SDS011;25219;52.244;21.006;2023-05-01T14:02:17;2.67;;;1.30;;
39540;SDS011;25219;52.244;21.006;2023-05-01T14:04:44;5.38;;;1.23;;
39540;SDS011;25219;52.244;21.006;2023-05-01T14:07:10;2.72;;;1.45;;
39540;SDS011;25219;52.244;21.006;2023-05-01T14:09:35;2.80;;;1.33;;
39540;SDS011;25219;52.244;21.006;2023-05-01T14:12:00;3.92;;;1.40;;
39540;SDS011;25219;52.244;21.006;2023-05-01T14:14:26;6.68;;;1.70;;
39540;SDS011;25219;52.244;21.006;2023-05-01T14:16:51;5.15;;;1.80;;
39540;SDS011;25219;52.244;21.006;2023-05-01T14:19:16;4.27;;;1.53;;
39540;SDS011;25219;52.244;21.006;2023-05-01T14:21:42;4.13;;;1.83;;
39540;SDS011;25219;52.244;21.006;2023-05-01T14:24:08;5.28;;;1.65;;
39540;SDS011;25219;52.244;21.006;2023-05-01T14:26:34;3.40;;;1.33;;
39540;SDS011;25219;52.244;21.006;2023-05-01T14:29:00;2.80;;;1.48;;
39540;SDS011;25219;52.244;21.006;2023-05-01T14:31:26;5.23;;;1.77;;
39540;SDS011;25219;52.244;21.006;2023-05-01T14:33:54;2.13;;;1.33;;
39540;SDS011;25219;52.244;21.006;2023-05-01T14:36:19;4.63;;;1.20;;
39540;SDS011;25219;52.244;21.006;2023-05-01T14:38:44;3.90;;;1.33;;
39540;SDS011;25219;52.244;21.006;2023-05-01T14:41:13;2.72;;;1.45;;
39540;SDS011;25219;52.244;21.006;2023-05-01T14:43:39;4.53;;;1.98;;
39540;SDS011;25219;52.244;21.006;2023-05-01T14:46:05;4.97;;;1.80;;
39540;SDS011;25219;52.244;21.006;2023-05-01T14:48:33;4.90;;;1.67;;
39540;SDS011;25219;52.244;21.006;2023-05-01T14:50:59;5.95;;;1.65;;
39540;SDS011;25219;52.244;21.006;2023-05-01T14:53:24;5.90;;;1.50;;
39540;SDS011;25219;52.244;21.006;2023-05-01T14:55:51;3.13;;;1.52;;
39540;SDS011;25219;52.244;21.006;2023-05-01T14:58:16;5.90;;;1.47;;
39540;SDS011;25219;52.244;21.006;2023-05-01T15:00:41;4.73;;;2.00;;
39540;SDS011;25219;52.244;21.006;2023-05-01T15:03:06;7.47;;;1.97;;